sensor_id;sensor_type;location;lat;lon;timestamp;P1;durP1;ratioP1;P2;durP2;ratioP2
35703;SDS011;21820;51.112;13.762;2023-03-01T00:03:34;86.45;;;6.78;;
35703;SDS011;21820;51.112;13.762;2023-03-01T00:06:00;45.92;;;5.05;;
35703;SDS011;21820;51.112;13.762;2023-03-01T00:08:26;48.35;;;5.45;;
35703;SDS011;21820;51.112;13.762;2023-03-01T00:11:10;41.00;;;4.75;;
35703;SDS011;21820;51.112;13.762;2023-03-01T00:13:39;30.67;;;4.30;;
35703;SDS011;21820;51.112;13.762;2023-03-01T00:16:07;29.15;;;4.22;;
35703;SDS011;21820;51.112;13.762;2023-03-01T00:18:34;21.77;;;4.22;;
35703;SDS011;21820;51.112;13.762;2023-03-01T00:20:59;65.20;;;6.10;;
35703;SDS011;21820;51.112;13.762;2023-03-01T00:23:25;23.30;;;4.10;;
35703;SDS011;21820;51.112;13.762;2023-03-01T00:25:51;36.17;;;4.37;;
35703;SDS011;21820;51.112;13.762;2023-03-01T00:28:17;40.65;;;4.60;;
35703;SDS011;21820;51.112;13.762;2023-03-01T00:30:43;66.83;;;5.83;;
35703;SDS011;21820;51.112;13.762;2023-03-01T00:33:08;10.80;;;3.45;;
35703;SDS011;21820;51.112;13.762;2023-03-01T00:35:34;40.50;;;4.93;;
35703;SDS011;21820;51.112;13.762;2023-03-01T00:38:00;21.30;;;3.70;;
35703;SDS011;21820;51.112;13.762;2023-03-01T00:40:30;43.83;;;4.60;;
35703;SDS011;21820;51.112;13.762;2023-03-01T00:42:57;40.70;;;4.63;;
35703;SDS011;21820;51.112;13.762;2023-03-01T00:45:22;22.08;;;4.10;;
35703;SDS011;21820;51.112;13.762;2023-03-01T00:47:49;41.78;;;4.72;;
35703;SDS011;21820;51.112;13.762;2023-03-01T00:50:15;55.33;;;5.63;;
35703;SDS011;21820;51.112;13.762;2023-03-01T00:52:41;32.23;;;4.27;;
35703;SDS011;21820;51.112;13.762;2023-03-01T00:55:07;73.27;;;6.47;;
35703;SDS011;21820;51.112;13.762;2023-03-01T00:57:32;47.75;;;5.03;;
35703;SDS011;21820;51.112;13.762;2023-03-01T00:59:58;48.63;;;5.33;;
35703;SDS011;21820;51.112;13.762;2023-03-01T01:02:24;31.80;;;4.33;;
35703;SDS011;21820;51.112;13.762;2023-03-01T01:04:49;58.07;;;5.97;;
35703;SDS011;21820;51.112;13.762;2023-03-01T01:07:15;42.97;;;5.15;;
35703;SDS011;21820;51.112;13.762;2023-03-01T01:09:40;44.80;;;4.97;;
35703;SDS011;21820;51.112;13.762;2023-03-01T01:12:05;52.80;;;5.47;;
35703;SDS011;21820;51.112;13.762;2023-03-01T01:14:31;34.88;;;4.82;;
35703;SDS011;21820;51.112;13.762;2023-03-01T01:16:56;51.67;;;5.13;;
35703;SDS011;21820;51.112;13.762;2023-03-01T01:19:22;50.20;;;5.70;;
35703;SDS011;21820;51.112;13.762;2023-03-01T01:21:48;72.53;;;6.60;;
35703;SDS011;21820;51.112;13.762;2023-03-01T01:24:14;30.77;;;4.68;;
35703;SDS011;21820;51.112;13.762;2023-03-01T01:26:40;62.20;;;5.90;;
35703;SDS011;21820;51.112;13.762;2023-03-01T01:29:06;47.30;;;4.93;;
35703;SDS011;21820;51.112;13.762;2023-03-01T01:31:32;20.50;;;3.57;;
35703;SDS011;21820;51.112;13.762;2023-03-01T01:33:58;45.80;;;4.63;;
35703;SDS011;21820;51.112;13.762;2023-03-01T01:36:25;71.38;;;6.05;;
35703;SDS011;21820;51.112;13.762;2023-03-01T01:38:51;43.53;;;4.93;;
35703;SDS011;21820;51.112;13.762;2023-03-01T01:41:16;40.77;;;4.63;;
35703;SDS011;21820;51.112;13.762;2023-03-01T01:43:44;32.47;;;4.53;;
35703;SDS011;21820;51.112;13.762;2023-03-01T01:48:52;56.45;;;5.60;;
35703;SDS011;21820;51.112;13.762;2023-03-01T01:51:24;31.58;;;4.40;;
35703;SDS011;21820;51.112;13.762;2023-03-01T01:53:57;37.67;;;4.28;;
35703;SDS011;21820;51.112;13.762;2023-03-01T01:56:25;46.83;;;5.13;;
35703;SDS011;21820;51.112;13.762;2023-03-01T01:58:53;57.47;;;5.43;;
35703;SDS011;21820;51.112;13.762;2023-03-01T02:01:20;22.50;;;3.60;;
35703;SDS011;21820;51.112;13.762;2023-03-01T02:03:45;37.80;;;4.18;;
35703;SDS011;21820;51.112;13.762;2023-03-01T02:06:15;26.17;;;3.55;;
35703;SDS011;21820;51.112;13.762;2023-03-01T02:08:46;42.55;;;4.38;;
35703;SDS011;21820;51.112;13.762;2023-03-01T02:11:13;48.97;;;4.93;;
35703;SDS011;21820;51.112;13.762;2023-03-01T02:13:39;37.70;;;4.43;;
35703;SDS011;21820;51.112;13.762;2023-03-01T02:16:09;77.88;;;6.45;;
35703;SDS011;21820;51.112;13.762;2023-03-01T02:18:38;31.40;;;4.18;;
35703;SDS011;21820;51.112;13.762;2023-03-01T02:23:35;45.47;;;4.55;;
35703;SDS011;21820;51.112;13.762;2023-03-01T02:26:03;39.17;;;4.70;;
35703;SDS011;21820;51.112;13.762;2023-03-01T02:28:44;19.63;;;3.85;;
35703;SDS011;21820;51.112;13.762;2023-03-01T02:31:11;58.55;;;5.25;;
35703;SDS011;21820;51.112;13.762;2023-03-01T02:33:59;35.47;;;4.28;;
35703;SDS011;21820;51.112;13.762;2023-03-01T02:36:28;75.00;;;5.90;;
35703;SDS011;21820;51.112;13.762;2023-03-01T02:38:57;34.63;;;3.92;;
35703;SDS011;21820;51.112;13.762;2023-03-01T02:41:24;14.70;;;3.53;;
35703;SDS011;21820;51.112;13.762;2023-03-01T02:43:52;37.92;;;4.50;;
35703;SDS011;21820;51.112;13.762;2023-03-01T02:46:19;52.88;;;5.05;;
35703;SDS011;21820;51.112;13.762;2023-03-01T02:48:50;40.75;;;4.10;;
35703;SDS011;21820;51.112;13.762;2023-03-01T02:51:31;32.15;;;4.30;;
35703;SDS011;21820;51.112;13.762;2023-03-01T02:56:41;33.25;;;4.22;;
35703;SDS011;21820;51.112;13.762;2023-03-01T02:59:08;11.97;;;3.13;;
35703;SDS011;21820;51.112;13.762;2023-03-01T03:01:34;58.92;;;5.38;;
35703;SDS011;21820;51.112;13.762;2023-03-01T03:04:03;32.65;;;3.92;;
35703;SDS011;21820;51.112;13.762;2023-03-01T03:06:30;31.92;;;3.88;;
35703;SDS011;21820;51.112;13.762;2023-03-01T03:08:55;38.23;;;4.07;;
35703;SDS011;21820;51.112;13.762;2023-03-01T03:11:20;57.53;;;5.00;;
35703;SDS011;21820;51.112;13.762;2023-03-01T03:13:46;35.22;;;4.07;;
35703;SDS011;21820;51.112;13.762;2023-03-01T03:16:13;44.83;;;4.45;;
35703;SDS011;21820;51.112;13.762;2023-03-01T03:18:39;62.97;;;5.27;;
35703;SDS011;21820;51.112;13.762;2023-03-01T03:21:07;51.92;;;4.57;;
35703;SDS011;21820;51.112;13.762;2023-03-01T03:23:35;41.72;;;4.13;;
35703;SDS011;21820;51.112;13.762;2023-03-01T03:26:01;38.67;;;4.37;;
35703;SDS011;21820;51.112;13.762;2023-03-01T03:28:32;36.58;;;4.10;;
35703;SDS011;21820;51.112;13.762;2023-03-01T03:30:59;132.30;;;9.00;;
35703;SDS011;21820;51.112;13.762;2023-03-01T03:33:29;33.17;;;3.63;;
35703;SDS011;21820;51.112;13.762;2023-03-01T03:35:54;47.45;;;4.63;;
35703;SDS011;21820;51.112;13.762;2023-03-01T03:38:20;32.63;;;3.97;;
35703;SDS011;21820;51.112;13.762;2023-03-01T03:41:00;50.75;;;4.72;;
35703;SDS011;21820;51.112;13.762;2023-03-01T03:43:27;57.58;;;5.35;;
35703;SDS011;21820;51.112;13.762;2023-03-01T03:45:54;13.57;;;2.78;;
35703;SDS011;21820;51.112;13.762;2023-03-01T03:48:19;32.53;;;3.88;;
35703;SDS011;21820;51.112;13.762;2023-03-01T03:50:49;35.10;;;4.00;;
35703;SDS011;21820;51.112;13.762;2023-03-01T03:53:16;60.38;;;4.97;;
35703;SDS011;21820;51.112;13.762;2023-03-01T03:55:41;54.05;;;4.90;;
35703;SDS011;21820;51.112;13.762;2023-03-01T03:58:08;9.15;;;2.92;;
35703;SDS011;21820;51.112;13.762;2023-03-01T04:03:01;62.72;;;4.78;;
35703;SDS011;21820;51.112;13.762;2023-03-01T04:05:27;42.28;;;4.13;;
35703;SDS011;21820;51.112;13.762;2023-03-01T04:07:53;35.83;;;4.07;;
35703;SDS011;21820;51.112;13.762;2023-03-01T04:10:26;14.70;;;3.33;;
35703;SDS011;21820;51.112;13.762;2023-03-01T04:12:52;54.05;;;4.85;;
35703;SDS011;21820;51.112;13.762;2023-03-01T04:15:18;44.03;;;4.22;;
35703;SDS011;21820;51.112;13.762;2023-03-01T04:17:44;41.97;;;4.32;;
35703;SDS011;21820;51.112;13.762;2023-03-01T04:20:15;32.00;;;3.53;;
35703;SDS011;21820;51.112;13.762;2023-03-01T04:22:42;49.00;;;4.43;;
35703;SDS011;21820;51.112;13.762;2023-03-01T04:25:12;51.60;;;4.65;;
35703;SDS011;21820;51.112;13.762;2023-03-01T04:27:39;38.50;;;4.35;;
35703;SDS011;21820;51.112;13.762;2023-03-01T04:30:05;12.53;;;2.87;;
35703;SDS011;21820;51.112;13.762;2023-03-01T04:32:31;34.07;;;3.80;;
35703;SDS011;21820;51.112;13.762;2023-03-01T04:34:56;64.37;;;5.47;;
35703;SDS011;21820;51.112;13.762;2023-03-01T04:37:22;50.80;;;4.80;;
35703;SDS011;21820;51.112;13.762;2023-03-01T04:39:48;40.30;;;4.10;;
35703;SDS011;21820;51.112;13.762;2023-03-01T04:42:14;42.03;;;3.97;;
35703;SDS011;21820;51.112;13.762;2023-03-01T04:44:40;63.20;;;5.03;;
35703;SDS011;21820;51.112;13.762;2023-03-01T04:47:05;37.47;;;4.07;;
35703;SDS011;21820;51.112;13.762;2023-03-01T04:49:31;41.22;;;3.90;;
35703;SDS011;21820;51.112;13.762;2023-03-01T04:51:57;66.63;;;5.28;;
35703;SDS011;21820;51.112;13.762;2023-03-01T04:54:36;43.50;;;4.00;;
35703;SDS011;21820;51.112;13.762;2023-03-01T04:57:02;23.33;;;3.10;;
35703;SDS011;21820;51.112;13.762;2023-03-01T04:59:28;38.83;;;3.85;;
35703;SDS011;21820;51.112;13.762;2023-03-01T05:01:54;35.75;;;3.78;;
35703;SDS011;21820;51.112;13.762;2023-03-01T05:04:23;59.85;;;4.88;;
35703;SDS011;21820;51.112;13.762;2023-03-01T05:06:49;48.33;;;4.32;;
35703;SDS011;21820;51.112;13.762;2023-03-01T05:09:14;14.80;;;2.87;;
35703;SDS011;21820;51.112;13.762;2023-03-01T05:11:40;38.20;;;3.72;;
35703;SDS011;21820;51.112;13.762;2023-03-01T05:14:06;51.13;;;4.33;;
35703;SDS011;21820;51.112;13.762;2023-03-01T05:16:32;151.93;;;9.48;;
35703;SDS011;21820;51.112;13.762;2023-03-01T05:18:58;50.47;;;4.70;;
35703;SDS011;21820;51.112;13.762;2023-03-01T05:21:24;42.60;;;3.88;;
35703;SDS011;21820;51.112;13.762;2023-03-01T05:23:50;49.97;;;4.07;;
35703;SDS011;21820;51.112;13.762;2023-03-01T05:26:17;28.33;;;3.20;;
35703;SDS011;21820;51.112;13.762;2023-03-01T05:28:46;18.55;;;2.95;;
35703;SDS011;21820;51.112;13.762;2023-03-01T05:31:12;35.80;;;3.70;;
35703;SDS011;21820;51.112;13.762;2023-03-01T05:33:38;57.00;;;4.63;;
35703;SDS011;21820;51.112;13.762;2023-03-01T05:38:30;34.78;;;3.80;;
35703;SDS011;21820;51.112;13.762;2023-03-01T05:40:55;29.30;;;3.47;;
35703;SDS011;21820;51.112;13.762;2023-03-01T05:43:21;85.30;;;6.30;;
35703;SDS011;21820;51.112;13.762;2023-03-01T05:45:46;36.67;;;3.73;;
35703;SDS011;21820;51.112;13.762;2023-03-01T05:48:12;50.33;;;4.17;;
35703;SDS011;21820;51.112;13.762;2023-03-01T05:50:42;69.78;;;5.40;;
35703;SDS011;21820;51.112;13.762;2023-03-01T05:53:13;59.42;;;4.63;;
35703;SDS011;21820;51.112;13.762;2023-03-01T05:55:40;68.18;;;5.03;;
35703;SDS011;21820;51.112;13.762;2023-03-01T05:58:10;50.03;;;4.30;;
35703;SDS011;21820;51.112;13.762;2023-03-01T06:00:39;62.47;;;4.85;;
35703;SDS011;21820;51.112;13.762;2023-03-01T06:03:04;74.60;;;5.23;;
35703;SDS011;21820;51.112;13.762;2023-03-01T06:05:30;36.83;;;4.67;;
35703;SDS011;21820;51.112;13.762;2023-03-01T06:07:58;15.57;;;3.47;;
35703;SDS011;21820;51.112;13.762;2023-03-01T06:10:24;29.58;;;4.22;;
35703;SDS011;21820;51.112;13.762;2023-03-01T06:12:49;57.83;;;5.07;;
35703;SDS011;21820;51.112;13.762;2023-03-01T06:15:15;46.37;;;4.70;;
35703;SDS011;21820;51.112;13.762;2023-03-01T06:17:42;38.40;;;4.00;;
35703;SDS011;21820;51.112;13.762;2023-03-01T06:20:13;34.65;;;4.10;;
35703;SDS011;21820;51.112;13.762;2023-03-01T06:22:41;56.78;;;4.80;;
35703;SDS011;21820;51.112;13.762;2023-03-01T06:25:07;49.20;;;4.77;;
35703;SDS011;21820;51.112;13.762;2023-03-01T06:27:33;26.15;;;3.50;;
35703;SDS011;21820;51.112;13.762;2023-03-01T06:29:59;47.47;;;5.05;;
35703;SDS011;21820;51.112;13.762;2023-03-01T06:32:24;56.45;;;4.75;;
35703;SDS011;21820;51.112;13.762;2023-03-01T06:34:49;58.73;;;5.03;;
35703;SDS011;21820;51.112;13.762;2023-03-01T06:37:15;33.73;;;4.27;;
35703;SDS011;21820;51.112;13.762;2023-03-01T06:39:40;28.43;;;3.60;;
35703;SDS011;21820;51.112;13.762;2023-03-01T06:42:07;95.57;;;7.73;;
35703;SDS011;21820;51.112;13.762;2023-03-01T06:46:58;45.42;;;4.75;;
35703;SDS011;21820;51.112;13.762;2023-03-01T06:49:24;15.60;;;3.33;;
35703;SDS011;21820;51.112;13.762;2023-03-01T06:51:49;57.70;;;5.10;;
35703;SDS011;21820;51.112;13.762;2023-03-01T06:54:14;34.93;;;4.10;;
35703;SDS011;21820;51.112;13.762;2023-03-01T06:56:40;38.93;;;4.13;;
35703;SDS011;21820;51.112;13.762;2023-03-01T06:59:05;48.60;;;4.97;;
35703;SDS011;21820;51.112;13.762;2023-03-01T07:01:31;65.93;;;5.53;;
35703;SDS011;21820;51.112;13.762;2023-03-01T07:03:56;49.40;;;4.67;;
35703;SDS011;21820;51.112;13.762;2023-03-01T07:06:22;35.30;;;4.37;;
35703;SDS011;21820;51.112;13.762;2023-03-01T07:08:48;48.78;;;4.38;;
35703;SDS011;21820;51.112;13.762;2023-03-01T07:11:14;48.50;;;4.87;;
35703;SDS011;21820;51.112;13.762;2023-03-01T07:13:40;35.33;;;4.17;;
35703;SDS011;21820;51.112;13.762;2023-03-01T07:16:05;31.80;;;4.05;;
35703;SDS011;21820;51.112;13.762;2023-03-01T07:18:31;80.53;;;6.40;;
35703;SDS011;21820;51.112;13.762;2023-03-01T07:20:56;45.83;;;4.70;;
35703;SDS011;21820;51.112;13.762;2023-03-01T07:23:22;30.97;;;4.20;;
35703;SDS011;21820;51.112;13.762;2023-03-01T07:25:51;43.13;;;4.57;;
35703;SDS011;21820;51.112;13.762;2023-03-01T07:28:18;77.32;;;6.20;;
35703;SDS011;21820;51.112;13.762;2023-03-01T07:30:43;34.87;;;4.40;;
35703;SDS011;21820;51.112;13.762;2023-03-01T07:33:09;34.83;;;3.78;;
35703;SDS011;21820;51.112;13.762;2023-03-01T07:35:34;35.53;;;4.18;;
35703;SDS011;21820;51.112;13.762;2023-03-01T07:38:00;55.83;;;4.90;;
35703;SDS011;21820;51.112;13.762;2023-03-01T07:40:25;42.15;;;4.30;;
35703;SDS011;21820;51.112;13.762;2023-03-01T07:42:54;35.97;;;4.13;;
35703;SDS011;21820;51.112;13.762;2023-03-01T07:45:20;34.63;;;3.47;;
35703;SDS011;21820;51.112;13.762;2023-03-01T07:47:46;59.60;;;5.07;;
35703;SDS011;21820;51.112;13.762;2023-03-01T07:50:11;34.07;;;3.77;;
35703;SDS011;21820;51.112;13.762;2023-03-01T07:55:03;65.57;;;6.00;;
35703;SDS011;21820;51.112;13.762;2023-03-01T07:57:29;57.13;;;4.70;;
35703;SDS011;21820;51.112;13.762;2023-03-01T07:59:54;34.65;;;4.05;;
35703;SDS011;21820;51.112;13.762;2023-03-01T08:02:19;50.87;;;5.00;;
35703;SDS011;21820;51.112;13.762;2023-03-01T08:04:48;37.50;;;3.97;;
35703;SDS011;21820;51.112;13.762;2023-03-01T08:07:13;38.17;;;4.20;;
35703;SDS011;21820;51.112;13.762;2023-03-01T08:09:39;38.80;;;4.43;;
35703;SDS011;21820;51.112;13.762;2023-03-01T08:12:04;37.53;;;4.07;;
35703;SDS011;21820;51.112;13.762;2023-03-01T08:14:31;38.40;;;4.53;;
35703;SDS011;21820;51.112;13.762;2023-03-01T08:19:22;25.13;;;3.53;;
35703;SDS011;21820;51.112;13.762;2023-03-01T08:21:48;17.37;;;3.77;;
35703;SDS011;21820;51.112;13.762;2023-03-01T08:24:13;43.57;;;4.23;;
35703;SDS011;21820;51.112;13.762;2023-03-01T08:26:38;95.97;;;7.10;;
35703;SDS011;21820;51.112;13.762;2023-03-01T08:29:04;41.40;;;4.57;;
35703;SDS011;21820;51.112;13.762;2023-03-01T08:31:33;40.03;;;4.60;;
35703;SDS011;21820;51.112;13.762;2023-03-01T08:34:01;45.88;;;4.78;;
35703;SDS011;21820;51.112;13.762;2023-03-01T08:36:30;50.28;;;4.72;;
35703;SDS011;21820;51.112;13.762;2023-03-01T08:38:57;46.30;;;4.82;;
35703;SDS011;21820;51.112;13.762;2023-03-01T08:41:23;37.77;;;4.00;;
35703;SDS011;21820;51.112;13.762;2023-03-01T08:43:48;35.37;;;4.00;;
35703;SDS011;21820;51.112;13.762;2023-03-01T08:46:14;53.93;;;5.00;;
35703;SDS011;21820;51.112;13.762;2023-03-01T08:48:40;51.90;;;5.13;;
35703;SDS011;21820;51.112;13.762;2023-03-01T08:51:14;33.30;;;4.03;;
35703;SDS011;21820;51.112;13.762;2023-03-01T08:53:44;40.22;;;4.43;;
35703;SDS011;21820;51.112;13.762;2023-03-01T08:56:10;54.87;;;4.97;;
35703;SDS011;21820;51.112;13.762;2023-03-01T08:58:36;36.37;;;4.13;;
35703;SDS011;21820;51.112;13.762;2023-03-01T09:01:09;33.40;;;3.75;;
35703;SDS011;21820;51.112;13.762;2023-03-01T09:03:35;57.40;;;5.22;;
35703;SDS011;21820;51.112;13.762;2023-03-01T09:06:02;57.20;;;5.20;;
35703;SDS011;21820;51.112;13.762;2023-03-01T09:08:28;33.67;;;3.85;;
35703;SDS011;21820;51.112;13.762;2023-03-01T09:10:54;33.07;;;3.80;;
35703;SDS011;21820;51.112;13.762;2023-03-01T09:13:19;30.40;;;3.90;;
35703;SDS011;21820;51.112;13.762;2023-03-01T09:15:45;75.30;;;5.93;;
35703;SDS011;21820;51.112;13.762;2023-03-01T09:18:10;55.40;;;5.10;;
35703;SDS011;21820;51.112;13.762;2023-03-01T09:20:35;111.80;;;8.10;;
35703;SDS011;21820;51.112;13.762;2023-03-01T09:23:01;40.22;;;4.35;;
35703;SDS011;21820;51.112;13.762;2023-03-01T09:25:26;57.47;;;4.90;;
35703;SDS011;21820;51.112;13.762;2023-03-01T09:27:52;39.83;;;4.20;;
35703;SDS011;21820;51.112;13.762;2023-03-01T09:30:18;33.35;;;4.05;;
35703;SDS011;21820;51.112;13.762;2023-03-01T09:32:43;38.87;;;3.80;;
35703;SDS011;21820;51.112;13.762;2023-03-01T09:35:09;62.80;;;5.40;;
35703;SDS011;21820;51.112;13.762;2023-03-01T09:37:35;43.10;;;4.40;;
35703;SDS011;21820;51.112;13.762;2023-03-01T09:40:02;34.92;;;4.00;;
35703;SDS011;21820;51.112;13.762;2023-03-01T09:42:31;45.85;;;4.82;;
35703;SDS011;21820;51.112;13.762;2023-03-01T09:45:00;75.45;;;6.35;;
35703;SDS011;21820;51.112;13.762;2023-03-01T09:47:31;38.63;;;4.30;;
35703;SDS011;21820;51.112;13.762;2023-03-01T09:50:04;47.83;;;4.95;;
35703;SDS011;21820;51.112;13.762;2023-03-01T09:55:11;53.00;;;4.72;;
35703;SDS011;21820;51.112;13.762;2023-03-01T09:57:49;56.83;;;4.65;;
35703;SDS011;21820;51.112;13.762;2023-03-01T10:00:21;118.50;;;8.20;;
35703;SDS011;21820;51.112;13.762;2023-03-01T10:03:01;36.55;;;4.30;;
35703;SDS011;21820;51.112;13.762;2023-03-01T10:05:48;37.92;;;4.15;;
35703;SDS011;21820;51.112;13.762;2023-03-01T10:10:50;17.75;;;3.38;;
35703;SDS011;21820;51.112;13.762;2023-03-01T10:13:19;39.88;;;3.90;;
35703;SDS011;21820;51.112;13.762;2023-03-01T10:16:03;42.88;;;4.38;;
35703;SDS011;21820;51.112;13.762;2023-03-01T10:18:36;52.80;;;4.78;;
35703;SDS011;21820;51.112;13.762;2023-03-01T10:21:38;60.15;;;5.18;;
35703;SDS011;21820;51.112;13.762;2023-03-01T10:23:56;57.90;;;4.93;;
35703;SDS011;21820;51.112;13.762;2023-03-01T10:31:42;39.58;;;4.35;;
35703;SDS011;21820;51.112;13.762;2023-03-01T10:34:10;55.70;;;5.20;;
35703;SDS011;21820;51.112;13.762;2023-03-01T10:36:38;56.65;;;5.10;;
35703;SDS011;21820;51.112;13.762;2023-03-01T10:39:11;61.65;;;5.82;;
35703;SDS011;21820;51.112;13.762;2023-03-01T10:41:55;14.53;;;3.10;;
35703;SDS011;21820;51.112;13.762;2023-03-01T10:44:36;55.08;;;4.82;;
35703;SDS011;21820;51.112;13.762;2023-03-01T10:47:20;34.08;;;3.75;;
35703;SDS011;21820;51.112;13.762;2023-03-01T10:52:26;94.28;;;7.03;;
35703;SDS011;21820;51.112;13.762;2023-03-01T10:54:57;84.47;;;6.60;;
35703;SDS011;21820;51.112;13.762;2023-03-01T10:57:32;39.78;;;3.95;;
35703;SDS011;21820;51.112;13.762;2023-03-01T11:02:46;96.68;;;6.60;;
35703;SDS011;21820;51.112;13.762;2023-03-01T11:08:02;40.63;;;4.20;;
35703;SDS011;21820;51.112;13.762;2023-03-01T11:13:08;56.47;;;4.65;;
35703;SDS011;21820;51.112;13.762;2023-03-01T11:15:40;59.03;;;4.90;;
35703;SDS011;21820;51.112;13.762;2023-03-01T11:18:17;17.37;;;2.87;;
35703;SDS011;21820;51.112;13.762;2023-03-01T11:20:45;25.35;;;3.42;;
35703;SDS011;21820;51.112;13.762;2023-03-01T11:23:13;35.43;;;3.87;;
35703;SDS011;21820;51.112;13.762;2023-03-01T11:25:42;56.17;;;4.63;;
35703;SDS011;21820;51.112;13.762;2023-03-01T11:28:14;48.95;;;4.57;;
35703;SDS011;21820;51.112;13.762;2023-03-01T11:30:48;36.10;;;3.85;;
35703;SDS011;21820;51.112;13.762;2023-03-01T11:33:44;34.33;;;4.00;;
35703;SDS011;21820;51.112;13.762;2023-03-01T11:38:48;33.15;;;3.65;;
35703;SDS011;21820;51.112;13.762;2023-03-01T11:41:21;35.77;;;3.83;;
35703;SDS011;21820;51.112;13.762;2023-03-01T11:43:55;45.03;;;4.30;;
35703;SDS011;21820;51.112;13.762;2023-03-01T11:52:09;41.83;;;4.05;;
35703;SDS011;21820;51.112;13.762;2023-03-01T12:05:36;49.92;;;4.45;;
35703;SDS011;21820;51.112;13.762;2023-03-01T12:20:02;72.60;;;6.00;;
35703;SDS011;21820;51.112;13.762;2023-03-01T12:22:38;50.97;;;4.18;;
35703;SDS011;21820;51.112;13.762;2023-03-01T12:25:15;73.10;;;5.47;;
35703;SDS011;21820;51.112;13.762;2023-03-01T12:30:50;36.95;;;3.67;;
35703;SDS011;21820;51.112;13.762;2023-03-01T12:38:42;35.63;;;3.92;;
35703;SDS011;21820;51.112;13.762;2023-03-01T12:41:25;37.63;;;4.13;;
35703;SDS011;21820;51.112;13.762;2023-03-01T12:44:11;34.42;;;3.67;;
35703;SDS011;21820;51.112;13.762;2023-03-01T12:49:45;42.05;;;4.38;;
35703;SDS011;21820;51.112;13.762;2023-03-01T12:54:49;59.08;;;4.60;;
35703;SDS011;21820;51.112;13.762;2023-03-01T12:57:20;38.30;;;3.78;;
35703;SDS011;21820;51.112;13.762;2023-03-01T13:02:24;33.08;;;3.35;;
35703;SDS011;21820;51.112;13.762;2023-03-01T13:10:47;18.88;;;2.67;;
35703;SDS011;21820;51.112;13.762;2023-03-01T13:13:22;38.35;;;3.83;;
35703;SDS011;21820;51.112;13.762;2023-03-01T13:15:49;59.70;;;4.70;;
35703;SDS011;21820;51.112;13.762;2023-03-01T13:30:59;52.10;;;4.35;;
35703;SDS011;21820;51.112;13.762;2023-03-01T13:35:51;56.03;;;4.60;;
35703;SDS011;21820;51.112;13.762;2023-03-01T13:38:36;46.35;;;4.18;;
35703;SDS011;21820;51.112;13.762;2023-03-01T13:46:54;41.97;;;4.18;;
35703;SDS011;21820;51.112;13.762;2023-03-01T13:49:23;54.00;;;4.50;;
35703;SDS011;21820;51.112;13.762;2023-03-01T13:51:52;49.85;;;4.25;;
35703;SDS011;21820;51.112;13.762;2023-03-01T13:54:25;31.67;;;3.37;;
35703;SDS011;21820;51.112;13.762;2023-03-01T13:56:53;53.58;;;4.50;;
35703;SDS011;21820;51.112;13.762;2023-03-01T13:59:20;29.02;;;3.38;;
35703;SDS011;21820;51.112;13.762;2023-03-01T14:01:54;69.63;;;5.30;;
35703;SDS011;21820;51.112;13.762;2023-03-01T14:04:22;38.53;;;3.92;;
35703;SDS011;21820;51.112;13.762;2023-03-01T14:10:01;43.15;;;4.10;;
35703;SDS011;21820;51.112;13.762;2023-03-01T14:17:41;37.90;;;3.90;;
35703;SDS011;21820;51.112;13.762;2023-03-01T14:20:20;41.28;;;3.70;;
35703;SDS011;21820;51.112;13.762;2023-03-01T14:22:49;60.50;;;4.80;;
35703;SDS011;21820;51.112;13.762;2023-03-01T14:25:26;86.32;;;5.80;;
35703;SDS011;21820;51.112;13.762;2023-03-01T14:27:56;160.02;;;9.70;;
35703;SDS011;21820;51.112;13.762;2023-03-01T14:35:54;168.95;;;10.13;;
35703;SDS011;21820;51.112;13.762;2023-03-01T14:38:27;182.40;;;10.93;;
35703;SDS011;21820;51.112;13.762;2023-03-01T14:40:57;185.25;;;11.02;;
35703;SDS011;21820;51.112;13.762;2023-03-01T14:43:28;158.02;;;10.23;;
35703;SDS011;21820;51.112;13.762;2023-03-01T14:45:55;168.85;;;10.65;;
35703;SDS011;21820;51.112;13.762;2023-03-01T14:48:20;164.27;;;10.68;;
35703;SDS011;21820;51.112;13.762;2023-03-01T14:50:46;189.93;;;11.20;;
35703;SDS011;21820;51.112;13.762;2023-03-01T14:53:23;144.95;;;9.27;;
35703;SDS011;21820;51.112;13.762;2023-03-01T14:55:51;174.30;;;10.90;;
35703;SDS011;21820;51.112;13.762;2023-03-01T14:58:20;150.35;;;9.38;;
35703;SDS011;21820;51.112;13.762;2023-03-01T15:00:54;145.13;;;9.63;;
35703;SDS011;21820;51.112;13.762;2023-03-01T15:03:25;195.10;;;12.02;;
35703;SDS011;21820;51.112;13.762;2023-03-01T15:06:03;172.93;;;10.63;;
35703;SDS011;21820;51.112;13.762;2023-03-01T15:08:30;219.50;;;13.35;;
35703;SDS011;21820;51.112;13.762;2023-03-01T15:11:01;160.93;;;10.25;;
35703;SDS011;21820;51.112;13.762;2023-03-01T15:13:47;162.50;;;10.05;;
35703;SDS011;21820;51.112;13.762;2023-03-01T15:16:13;162.30;;;9.97;;
35703;SDS011;21820;51.112;13.762;2023-03-01T15:18:49;187.65;;;11.55;;
35703;SDS011;21820;51.112;13.762;2023-03-01T15:21:26;191.25;;;11.80;;
35703;SDS011;21820;51.112;13.762;2023-03-01T15:26:46;170.55;;;10.45;;
35703;SDS011;21820;51.112;13.762;2023-03-01T15:29:21;163.00;;;10.02;;
35703;SDS011;21820;51.112;13.762;2023-03-01T15:34:56;255.55;;;15.43;;
35703;SDS011;21820;51.112;13.762;2023-03-01T15:42:46;162.73;;;10.40;;
35703;SDS011;21820;51.112;13.762;2023-03-01T15:47:41;223.68;;;13.23;;
35703;SDS011;21820;51.112;13.762;2023-03-01T15:50:18;179.25;;;11.27;;
35703;SDS011;21820;51.112;13.762;2023-03-01T15:52:46;178.95;;;10.95;;
35703;SDS011;21820;51.112;13.762;2023-03-01T15:55:19;154.50;;;9.63;;
35703;SDS011;21820;51.112;13.762;2023-03-01T15:57:46;171.27;;;10.43;;
35703;SDS011;21820;51.112;13.762;2023-03-01T16:00:13;172.85;;;10.55;;
35703;SDS011;21820;51.112;13.762;2023-03-01T16:02:40;173.25;;;10.85;;
35703;SDS011;21820;51.112;13.762;2023-03-01T16:05:27;218.57;;;13.52;;
35703;SDS011;21820;51.112;13.762;2023-03-01T16:10:20;180.75;;;10.93;;
35703;SDS011;21820;51.112;13.762;2023-03-01T16:12:46;187.03;;;11.20;;
35703;SDS011;21820;51.112;13.762;2023-03-01T16:15:18;175.30;;;10.70;;
35703;SDS011;21820;51.112;13.762;2023-03-01T16:17:49;137.27;;;8.52;;
35703;SDS011;21820;51.112;13.762;2023-03-01T16:20:15;222.37;;;13.30;;
35703;SDS011;21820;51.112;13.762;2023-03-01T16:22:44;174.65;;;10.88;;
35703;SDS011;21820;51.112;13.762;2023-03-01T16:25:10;154.15;;;9.85;;
35703;SDS011;21820;51.112;13.762;2023-03-01T16:27:37;180.77;;;11.25;;
35703;SDS011;21820;51.112;13.762;2023-03-01T16:30:04;153.33;;;9.27;;
35703;SDS011;21820;51.112;13.762;2023-03-01T16:32:30;161.45;;;9.57;;
35703;SDS011;21820;51.112;13.762;2023-03-01T16:34:55;225.40;;;13.93;;
35703;SDS011;21820;51.112;13.762;2023-03-01T16:37:21;167.07;;;10.35;;
35703;SDS011;21820;51.112;13.762;2023-03-01T16:39:47;170.20;;;10.63;;
35703;SDS011;21820;51.112;13.762;2023-03-01T16:42:13;58.53;;;5.35;;
35703;SDS011;21820;51.112;13.762;2023-03-01T16:44:39;37.37;;;3.87;;
35703;SDS011;21820;51.112;13.762;2023-03-01T16:47:04;33.57;;;3.80;;
35703;SDS011;21820;51.112;13.762;2023-03-01T16:49:30;50.83;;;4.57;;
35703;SDS011;21820;51.112;13.762;2023-03-01T16:51:55;50.63;;;4.67;;
35703;SDS011;21820;51.112;13.762;2023-03-01T16:54:21;32.15;;;3.95;;